Terminal Aerodrome Forecast
Issued by NWS Louisville, KY

Home | Current Version | Previous Version | Text Only | Print | Product List | Glossary On
Versions: 1 2 3 4 5 6 7 8 9 10 11 12 13 14 15 16 17 18 19 20 21 22 23 24
000
FTUS43 KLMK 040400 AAB
TAFSDF
TAF AMD
KSDF 040424Z 0404/0506 31007KT 2SM RA BKN008 OVC015
     FM040700 32008KT 5SM -RA BR BKN008
     FM041600 34009KT 2SM -SN BR BKN007
      TEMPO 0417/0421 3/4SM -SN VV004=

USA.gov is the U.S. government's official web portal to all federal, state and local government web resources and services.